createdAt,value
2022-12-03T00:13:41.467Z,24.20
2022-12-03T00:43:44.907Z,22.40
2022-12-03T01:13:47.990Z,24.60
2022-12-03T01:43:50.826Z,24.40
2022-12-03T02:13:54.830Z,20.20
2022-12-03T02:43:57.769Z,23.33
2022-12-03T03:14:00.641Z,23.00
2022-12-03T03:44:03.790Z,21.10
2022-12-03T04:14:06.844Z,22.57
2022-12-03T04:44:09.782Z,19.40
2022-12-03T05:14:13.793Z,16.00
2022-12-03T05:44:20.491Z,18.27
2022-12-03T06:14:24.405Z,19.27
2022-12-03T06:44:27.229Z,18.37
2022-12-03T07:14:32.357Z,19.47
2022-12-03T07:44:35.247Z,17.20
2022-12-03T08:14:39.137Z,18.67
2022-12-03T08:44:41.974Z,19.13
2022-12-03T09:14:47.456Z,19.90
2022-12-03T09:44:50.274Z,15.17
2022-12-03T10:14:54.592Z,21.50
2022-12-03T10:44:57.640Z,21.80
2022-12-03T11:15:01.511Z,26.45
2022-12-03T11:45:04.391Z,23.77
2022-12-03T12:15:09.304Z,26.83
2022-12-03T12:45:12.134Z,26.53
2022-12-03T13:15:16.934Z,30.23
2022-12-03T13:45:20.038Z,27.30
2022-12-03T14:15:24.385Z,31.90
2022-12-03T14:45:27.898Z,34.25
2022-12-03T15:15:31.299Z,32.97
2022-12-03T15:45:34.166Z,36.67
2022-12-03T16:15:38.988Z,35.80
2022-12-03T16:45:41.878Z,35.97
2022-12-03T17:15:45.675Z,40.17
2022-12-03T17:45:48.571Z,37.77
2022-12-03T18:15:52.693Z,38.50
2022-12-03T18:45:55.598Z,34.40
2022-12-03T19:16:00.605Z,37.07
2022-12-03T19:46:03.885Z,42.33
2022-12-03T20:16:07.967Z,38.60
2022-12-03T20:46:11.519Z,47.65
2022-12-03T21:16:15.822Z,40.20
2022-12-03T21:47:08.141Z,42.33
2022-12-03T22:16:42.975Z,43.10
2022-12-03T22:46:46.550Z,37.33
2022-12-03T23:16:49.976Z,40.60
2022-12-03T23:46:53.987Z,37.75
